Estació municipal de Seva (Osona, P.N. del Montseny)

Consulta les dades en temps real de l'estació municipal de Seva





Hora UTC 10:30
Temperatura 27.0 ºC
Sòl 15 cm 33.5 ºC
Humitat 45.4 %
Pressió 1023.1 hPa
Pluja 0.0 mm
Velocitat vent 10.5 km/h
Direcció vent SSW
Radiació solar 724.8 W/m²

Webcam

Dades diàries 2026-08-31



Hora UTC (hivern +1h; estiu +2h)
Temperatura (ºC) Humitat (%) Pressió (hPa) Velocitat vent (km/h) Precipitació (mm) Radiació solar (W/m²)
Hora UTC Aire Sòl 15 cm Humitat Pressió Vel. Dir. Vel. Max Dir. Intent. màx 5 min. Rad. Sol.
00:05 17.4 15.1 63.0 1021.3 2.5 E 2.5 ENE 0.0 0.0
00:10 17.2 14.9 65.2 1021.3 2.7 ESE 3.9 ESE 0.0 0.0
00:15 17.1 14.9 65.1 1021.2 1.6 E 3.2 ESE 0.0 0.0
00:20 17.0 14.8 67.3 1021.2 3.2 E 4.2 E 0.0 0.1
00:25 17.0 14.8 67.0 1021.2 3.0 E 4.6 ESE 0.0 0.0
00:30 17.0 14.9 68.0 1021.3 3.5 ESE 4.6 E 0.0 0.0
00:35 16.9 14.7 67.1 1021.2 3.0 E 3.9 ESE 0.0 0.1
00:40 16.8 14.7 69.3 1021.2 3.0 ENE 4.6 ENE 0.0 0.1
00:45 17.0 14.7 69.8 1021.2 2.1 E 3.9 ENE 0.0 0.0
00:50 16.9 14.7 69.4 1021.2 4.0 ENE 5.6 E 0.0 0.0
00:55 16.7 14.6 69.7 1021.2 3.6 E 4.6 E 0.0 0.1
01:00 16.5 14.5 70.6 1021.3 2.7 ESE 4.9 E 0.0 0.1
01:05 16.4 14.3 71.4 1021.3 3.6 ESE 4.6 ESE 0.0 0.1
01:10 16.4 14.3 71.9 1021.3 2.8 ESE 3.9 ESE 0.0 0.0
01:15 16.3 14.3 72.4 1021.3 3.4 E 4.9 E 0.0 0.0
01:20 16.3 14.4 72.3 1021.3 3.9 E 4.9 E 0.0 0.1
01:25 16.1 14.2 73.2 1021.2 3.5 ESE 4.8 E 0.0 0.1
01:30 16.2 14.2 74.1 1021.2 2.8 ESE 3.9 ESE 0.0 0.1
01:35 16.2 14.3 73.5 1021.2 3.0 ESE 4.2 ESE 0.0 0.1
01:40 16.2 14.2 73.7 1021.2 3.4 E 4.2 E 0.0 0.1
01:45 16.2 14.2 73.2 1021.2 4.4 ENE 5.3 ENE 0.0 0.1
01:50 16.1 14.2 73.1 1021.2 3.9 E 4.9 E 0.0 0.0
01:55 16.1 14.2 73.6 1021.2 3.1 SE 4.9 E 0.0 0.1
02:00 16.2 14.1 72.5 1021.2 0.7 ESE 3.2 SE 0.0 0.0
02:05 16.1 14.1 71.5 1021.2 4.0 ENE 7.1 ENE 0.0 0.1
02:10 16.0 14.1 72.0 1021.2 3.2 E 4.6 NE 0.0 0.0
02:15 16.0 14.0 71.4 1021.1 5.0 E 6.4 E 0.0 0.1
02:20 16.1 14.0 71.1 1021.1 2.9 ESE 6.0 E 0.0 0.1
02:25 16.3 14.0 71.6 1021.2 0.1 SSE 1.4 SSE 0.0 0.1
02:30 16.4 14.1 70.7 1021.1 0.4 SE 1.8 SE 0.0 0.1
02:35 16.3 14.0 69.9 1021.1 0.4 ENE 2.5 NE 0.0 0.0
02:40 16.0 13.9 70.7 1021.1 0.9 NE 2.1 NE 0.0 0.1
02:45 16.1 13.8 72.9 1021.2 0.0 NNE 0.0 NE 0.0 0.0
02:50 16.2 13.7 71.7 1021.2 0.0 NNE 0.0 NNE 0.0 0.1
02:55 16.1 13.7 72.7 1021.3 0.5 ENE 2.5 ESE 0.0 0.1
03:00 16.0 13.6 73.1 1021.3 2.8 NE 4.2 NNE 0.0 0.0
03:05 16.1 13.6 73.2 1021.3 2.8 NE 4.2 NE 0.0 0.1
03:10 16.1 13.6 73.4 1021.3 3.1 E 4.6 ENE 0.0 0.1
03:15 16.0 13.6 74.0 1021.3 2.9 E 3.9 ENE 0.0 0.1
03:20 15.9 13.5 75.1 1021.4 2.5 ESE 3.5 E 0.0 0.1
03:25 15.9 13.5 75.7 1021.3 3.3 E 4.6 NE 0.0 0.1
03:30 15.7 13.5 75.3 1021.3 2.6 E 3.5 E 0.0 0.1
03:35 15.6 13.3 76.8 1021.3 2.6 E 3.9 E 0.0 0.1
03:40 15.6 13.3 77.2 1021.3 1.5 E 3.2 ESE 0.0 0.1
03:45 15.6 13.4 78.1 1021.3 0.0 NNE 0.0 E 0.0 0.0
03:50 15.6 13.3 78.6 1021.3 0.0 NNE 0.0 ENE 0.0 0.1
03:55 15.5 13.3 78.4 1021.3 0.0 ENE 1.1 ENE 0.0 0.1
04:00 15.2 13.1 78.7 1021.3 0.5 E 2.5 E 0.0 0.1
04:05 15.2 12.9 80.1 1021.3 2.6 E 3.9 ESE 0.0 0.1
04:10 15.3 12.9 80.2 1021.3 3.1 E 4.2 ENE 0.0 0.1
04:15 15.1 12.9 79.6 1021.3 2.7 E 4.2 ESE 0.0 0.1
04:20 15.1 12.9 80.3 1021.3 2.3 E 3.2 E 0.0 0.1
04:25 15.2 13.0 80.9 1021.3 2.2 ESE 3.5 E 0.0 0.1
04:30 15.3 13.0 79.7 1021.3 2.2 E 3.2 E 0.0 0.1
04:35 15.3 13.0 80.5 1021.3 2.1 ESE 2.8 ESE 0.0 0.0
04:40 15.3 13.0 80.5 1021.3 1.5 ESE 2.8 ESE 0.0 0.1
04:45 15.2 13.0 80.6 1021.3 1.5 ESE 2.8 SE 0.0 0.1
04:50 15.2 12.9 81.2 1021.3 1.6 SE 2.5 SE 0.0 0.1
04:55 15.2 13.0 81.5 1021.3 0.0 NNE 0.0 SE 0.0 0.1
05:00 15.2 13.0 81.4 1021.3 0.1 SSW 1.4 S 0.0 0.3
05:05 15.1 13.0 81.3 1021.4 0.5 SE 2.1 SE 0.0 0.7
05:10 15.1 12.9 81.7 1021.4 1.0 SE 3.2 SE 0.0 1.4
05:15 15.1 12.9 81.6 1021.3 2.2 SE 2.8 SE 0.0 2.6
05:20 15.0 12.8 82.0 1021.4 0.9 SE 2.1 SE 0.0 4.2
05:25 14.9 12.7 81.3 1021.5 1.0 SE 2.1 SE 0.0 6.2
05:30 14.9 12.7 82.6 1021.5 1.9 SE 2.5 SE 0.0 8.5
05:35 15.0 12.8 82.1 1021.6 2.1 SE 2.8 SE 0.0 10.8
05:40 14.9 12.8 81.5 1021.6 2.0 ESE 3.2 ESE 0.0 13.0
05:45 15.0 12.9 82.8 1021.7 2.2 SW 3.5 WSW 0.0 15.5
05:50 15.1 13.0 82.9 1021.7 1.6 WSW 3.9 WSW 0.0 18.7
05:55 15.1 13.1 82.1 1021.7 0.8 ESE 2.5 ESE 0.0 36.9
06:00 15.1 13.3 82.2 1021.8 0.6 SE 2.1 SE 0.0 61.1
06:05 15.3 13.5 82.4 1021.8 0.0 NNE 0.0 SW 0.0 76.2
06:10 15.5 13.7 81.8 1021.8 0.0 NNE 0.0 WSW 0.0 106.2
06:15 15.7 13.9 80.9 1021.9 0.0 NNE 0.0 WSW 0.0 119.1
06:20 15.9 14.4 80.2 1021.9 0.0 NNE 0.0 WSW 0.0 132.4
06:25 16.1 15.0 80.3 1021.9 0.1 WSW 1.1 WSW 0.0 146.5
06:30 16.3 15.3 79.4 1021.9 0.0 NNE 0.0 WSW 0.0 160.1
06:35 16.7 15.4 78.7 1022.0 0.0 WSW 1.1 WSW 0.0 174.3
06:40 17.3 15.7 76.3 1022.1 0.4 WNW 2.1 WNW 0.0 187.8
06:45 18.5 16.3 73.0 1022.2 0.0 N 1.1 N 0.0 202.1
06:50 19.4 18.0 66.8 1022.2 1.3 NNW 2.8 NNW 0.0 216.1
06:55 19.9 20.2 65.9 1022.2 1.1 NNW 3.2 NNW 0.0 230.2
07:00 20.2 20.4 64.1 1022.3 1.3 NNW 2.8 N 0.0 245.1
07:05 20.4 21.0 63.2 1022.3 0.8 NW 2.8 NW 0.0 259.5
07:10 20.4 21.9 62.9 1022.3 2.3 NNW 3.5 NNW 0.0 274.1
07:15 20.8 22.8 61.3 1022.3 1.5 NNE 3.5 NNE 0.0 288.6
07:20 21.3 24.2 59.8 1022.4 1.3 NNE 4.2 N 0.0 303.1
07:25 21.3 25.5 58.6 1022.4 2.3 NNW 5.3 WNW 0.0 317.7
07:30 21.3 26.4 58.8 1022.4 3.1 NW 6.0 NW 0.0 332.1
07:35 21.1 26.9 59.6 1022.4 4.1 NW 6.4 NW 0.0 347.1
07:40 21.2 27.4 59.8 1022.4 4.5 NW 6.0 NW 0.0 360.9
07:45 21.3 27.9 59.1 1022.4 3.5 WNW 6.4 WNW 0.0 375.3
07:50 21.5 28.4 58.5 1022.4 4.4 WNW 6.4 NW 0.0 389.1
07:55 21.6 28.8 58.4 1022.5 2.6 NW 6.0 NW 0.0 403.1
08:00 22.1 28.9 57.4 1022.5 3.1 WNW 6.0 NW 0.0 417.2
08:05 22.3 29.6 57.1 1022.5 4.1 WNW 7.4 W 0.0 430.3
08:10 22.5 29.8 56.6 1022.6 4.8 NW 7.8 WNW 0.0 443.1
08:15 22.7 30.2 55.9 1022.6 5.6 WNW 8.5 NW 0.0 456.0
08:20 22.8 30.4 55.6 1022.7 4.9 WNW 8.1 WNW 0.0 469.5
08:25 23.2 30.8 54.1 1022.7 8.5 WNW 11.6 WNW 0.0 482.1
08:30 23.6 30.7 52.3 1022.8 7.7 W 13.1 W 0.0 493.9
08:35 24.1 30.8 50.9 1022.8 4.5 WSW 12.0 W 0.0 507.7
08:40 24.9 31.1 48.6 1022.8 3.6 SSW 11.6 SW 0.0 520.3
08:45 25.6 31.9 47.7 1022.8 4.6 S 10.2 SSW 0.0 533.2
08:50 25.8 31.7 45.4 1022.8 5.9 S 15.5 SSE 0.0 545.4
08:55 26.0 31.6 44.9 1022.9 8.5 S 17.3 S 0.0 556.8
09:00 25.8 31.3 45.2 1022.9 8.8 SSE 18.4 SSE 0.0 568.2
09:05 25.8 30.6 45.3 1022.9 9.5 SSE 19.1 SSE 0.0 578.8
09:10 26.0 30.7 44.9 1023.0 10.5 S 20.5 SW 0.0 590.5
09:15 26.1 31.0 45.3 1023.0 8.3 S 16.2 SSW 0.0 601.8
09:20 26.2 31.3 45.0 1023.0 8.8 S 19.8 S 0.0 611.5
09:25 26.4 31.7 46.1 1023.1 8.3 SSW 19.8 S 0.0 621.5
09:30 26.4 31.9 46.1 1023.1 10.2 SSW 18.4 SSW 0.0 631.6
09:35 26.4 31.8 47.6 1023.1 7.5 S 16.9 SSW 0.0 640.8
09:40 26.4 31.4 47.9 1023.2 13.0 S 23.6 S 0.0 648.8
09:45 26.4 31.2 47.8 1023.2 10.9 SSW 23.6 SW 0.0 657.7
09:50 26.8 32.0 46.1 1023.2 9.0 SSW 22.6 SSW 0.0 666.0
09:55 26.9 32.6 45.7 1023.2 9.8 SSW 22.2 SW 0.0 676.8
10:00 27.2 32.8 44.6 1023.1 8.3 SSW 18.7 S 0.0 684.2
10:05 27.2 32.8 43.0 1023.1 9.5 S 24.0 S 0.0 693.2
10:10 27.1 32.7 42.7 1023.1 10.6 S 21.9 S 0.0 700.0
10:15 27.1 32.8 46.7 1023.1 8.8 SSW 21.5 SSW 0.0 705.9
10:20 27.3 33.2 47.0 1023.1 11.7 SW 26.1 SW 0.0 712.4
10:25 27.2 33.5 46.2 1023.1 10.7 SW 20.1 WSW 0.0 718.3
10:30 27.0 33.5 45.4 1023.1 10.5 SSW 24.0 SSW 0.0 724.8
Màxima 27.3 33.5 82.9 1023.2 13.0 S 26.1 SW 0.0 724.8
Mínima 14.9 12.7 42.7 1021.1
Total 0.0